sensor_id;sensor_type;location;lat;lon;timestamp;pressure;altitude;pressure_sealevel;temperature;humidity
78444;BME280;67739;52.986;8.894;2023-04-03T00:00:44;103367.91;;;-0.08;79.58
78444;BME280;67739;52.986;8.894;2023-04-03T00:03:10;103367.91;;;-0.08;79.50
78444;BME280;67739;52.986;8.894;2023-04-03T00:05:35;103358.19;;;-0.09;79.70
78444;BME280;67739;52.986;8.894;2023-04-03T00:08:00;103361.72;;;-0.08;79.65
78444;BME280;67739;52.986;8.894;2023-04-03T00:10:27;103351.06;;;-0.11;79.22
78444;BME280;67739;52.986;8.894;2023-04-03T00:12:53;103353.56;;;-0.14;79.48
78444;BME280;67739;52.986;8.894;2023-04-03T00:15:18;103357.94;;;-0.16;79.19
78444;BME280;67739;52.986;8.894;2023-04-03T00:17:43;103351.69;;;-0.18;79.34
78444;BME280;67739;52.986;8.894;2023-04-03T00:20:09;103349.78;;;-0.22;79.10
78444;BME280;67739;52.986;8.894;2023-04-03T00:22:34;103361.09;;;-0.25;79.46
78444;BME280;67739;52.986;8.894;2023-04-03T00:25:00;103361.88;;;-0.27;79.55
78444;BME280;67739;52.986;8.894;2023-04-03T00:27:25;103356.56;;;-0.29;79.45
78444;BME280;67739;52.986;8.894;2023-04-03T00:29:50;103353.88;;;-0.30;79.95
78444;BME280;67739;52.986;8.894;2023-04-03T00:32:16;103362.63;;;-0.31;79.81
78444;BME280;67739;52.986;8.894;2023-04-03T00:34:41;103364.31;;;-0.33;80.16
78444;BME280;67739;52.986;8.894;2023-04-03T00:37:06;103376.53;;;-0.36;80.23
78444;BME280;67739;52.986;8.894;2023-04-03T00:39:31;103380.84;;;-0.38;80.52
78444;BME280;67739;52.986;8.894;2023-04-03T00:41:57;103383.41;;;-0.39;80.88
78444;BME280;67739;52.986;8.894;2023-04-03T00:47:11;103377.25;;;-0.40;80.61
78444;BME280;67739;52.986;8.894;2023-04-03T00:49:38;103369.28;;;-0.41;80.97
78444;BME280;67739;52.986;8.894;2023-04-03T00:52:11;103377.25;;;-0.40;81.06
78444;BME280;67739;52.986;8.894;2023-04-03T00:54:40;103375.44;;;-0.41;80.90
78444;BME280;67739;52.986;8.894;2023-04-03T00:57:06;103383.41;;;-0.39;81.12
78444;BME280;67739;52.986;8.894;2023-04-03T00:59:36;103379.94;;;-0.38;80.95
78444;BME280;67739;52.986;8.894;2023-04-03T01:02:04;103386.00;;;-0.41;81.27
78444;BME280;67739;52.986;8.894;2023-04-03T01:04:30;103378.03;;;-0.42;81.04
78444;BME280;67739;52.986;8.894;2023-04-03T01:07:02;103376.22;;;-0.43;81.25
78444;BME280;67739;52.986;8.894;2023-04-03T01:09:29;103384.94;;;-0.46;81.26
78444;BME280;67739;52.986;8.894;2023-04-03T01:12:14;103381.28;;;-0.49;81.38
78444;BME280;67739;52.986;8.894;2023-04-03T01:14:41;103388.22;;;-0.51;81.19
78444;BME280;67739;52.986;8.894;2023-04-03T01:19:58;103385.31;;;-0.59;81.02
78444;BME280;67739;52.986;8.894;2023-04-03T01:22:33;103392.25;;;-0.61;81.14
78444;BME280;67739;52.986;8.894;2023-04-03T01:25:01;103386.78;;;-0.65;81.44
78444;BME280;67739;52.986;8.894;2023-04-03T01:27:26;103387.50;;;-0.69;81.48
78444;BME280;67739;52.986;8.894;2023-04-03T01:29:52;103399.72;;;-0.72;81.93
78444;BME280;67739;52.986;8.894;2023-04-03T01:32:18;103399.69;;;-0.73;82.20
78444;BME280;67739;52.986;8.894;2023-04-03T01:34:43;103400.53;;;-0.74;82.38
78444;BME280;67739;52.986;8.894;2023-04-03T01:37:08;103408.44;;;-0.74;82.11
78444;BME280;67739;52.986;8.894;2023-04-03T01:39:34;103401.28;;;-0.77;81.99
78444;BME280;67739;52.986;8.894;2023-04-03T01:41:59;103401.28;;;-0.77;81.84
78444;BME280;67739;52.986;8.894;2023-04-03T01:44:25;103408.16;;;-0.80;81.69
78444;BME280;67739;52.986;8.894;2023-04-03T01:46:50;103411.56;;;-0.83;82.09
78444;BME280;67739;52.986;8.894;2023-04-03T01:49:15;103402.63;;;-0.86;82.05
78444;BME280;67739;52.986;8.894;2023-04-03T01:51:40;103409.56;;;-0.90;82.43
78444;BME280;67739;52.986;8.894;2023-04-03T01:54:06;103405.94;;;-0.92;81.97
78444;BME280;67739;52.986;8.894;2023-04-03T01:56:31;103403.13;;;-0.96;82.41
78444;BME280;67739;52.986;8.894;2023-04-03T01:58:56;103411.84;;;-0.97;82.13
78444;BME280;67739;52.986;8.894;2023-04-03T02:01:22;103405.63;;;-0.99;82.49
78444;BME280;67739;52.986;8.894;2023-04-03T02:03:47;103400.28;;;-1.01;82.43
78444;BME280;67739;52.986;8.894;2023-04-03T02:06:12;103409.88;;;-1.03;82.58
78444;BME280;67739;52.986;8.894;2023-04-03T02:08:38;103410.66;;;-1.05;82.42
78444;BME280;67739;52.986;8.894;2023-04-03T02:11:03;103413.16;;;-1.09;82.64
78444;BME280;67739;52.986;8.894;2023-04-03T02:13:28;103417.47;;;-1.11;82.74
78444;BME280;67739;52.986;8.894;2023-04-03T02:15:54;103420.03;;;-1.12;82.90
78444;BME280;67739;52.986;8.894;2023-04-03T02:18:19;103420.03;;;-1.12;82.64
78444;BME280;67739;52.986;8.894;2023-04-03T02:20:46;103419.97;;;-1.14;82.87
78444;BME280;67739;52.986;8.894;2023-04-03T02:23:11;103426.97;;;-1.14;83.11
78444;BME280;67739;52.986;8.894;2023-04-03T02:25:36;103412.88;;;-1.15;83.14
78444;BME280;67739;52.986;8.894;2023-04-03T02:28:02;103423.38;;;-1.16;82.67
78444;BME280;67739;52.986;8.894;2023-04-03T02:30:27;103425.06;;;-1.18;83.08
78444;BME280;67739;52.986;8.894;2023-04-03T02:32:52;103425.00;;;-1.20;83.09
78444;BME280;67739;52.986;8.894;2023-04-03T02:35:18;103420.50;;;-1.22;82.84
78444;BME280;67739;52.986;8.894;2023-04-03T02:37:43;103427.50;;;-1.23;82.98
78444;BME280;67739;52.986;8.894;2023-04-03T02:40:09;103426.53;;;-1.25;83.46
78444;BME280;67739;52.986;8.894;2023-04-03T02:42:36;103419.44;;;-1.26;83.25
78444;BME280;67739;52.986;8.894;2023-04-03T02:45:01;103423.88;;;-1.25;83.11
78444;BME280;67739;52.986;8.894;2023-04-03T02:47:27;103417.78;;;-1.24;83.18
78444;BME280;67739;52.986;8.894;2023-04-03T02:49:52;103417.78;;;-1.24;83.18
78444;BME280;67739;52.986;8.894;2023-04-03T02:52:18;103421.25;;;-1.25;83.52
78444;BME280;67739;52.986;8.894;2023-04-03T02:54:43;103418.56;;;-1.26;83.08
78444;BME280;67739;52.986;8.894;2023-04-03T02:57:09;103418.47;;;-1.28;83.44
78444;BME280;67739;52.986;8.894;2023-04-03T02:59:36;103423.66;;;-1.31;83.03
78444;BME280;67739;52.986;8.894;2023-04-03T03:02:01;103424.47;;;-1.32;83.41
78444;BME280;67739;52.986;8.894;2023-04-03T03:04:26;103425.25;;;-1.34;83.16
78444;BME280;67739;52.986;8.894;2023-04-03T03:06:52;103428.78;;;-1.34;83.54
78444;BME280;67739;52.986;8.894;2023-04-03T03:09:17;103431.34;;;-1.35;83.75
78444;BME280;67739;52.986;8.894;2023-04-03T03:11:43;103436.69;;;-1.34;83.75
78444;BME280;67739;52.986;8.894;2023-04-03T03:14:08;103436.69;;;-1.34;83.19
78444;BME280;67739;52.986;8.894;2023-04-03T03:16:33;103433.06;;;-1.36;83.32
78444;BME280;67739;52.986;8.894;2023-04-03T03:18:59;103427.75;;;-1.37;83.07
78444;BME280;67739;52.986;8.894;2023-04-03T03:21:24;103428.50;;;-1.40;83.29
78444;BME280;67739;52.986;8.894;2023-04-03T03:23:50;103433.63;;;-1.43;83.19
78444;BME280;67739;52.986;8.894;2023-04-03T03:26:15;103422.16;;;-1.45;83.36
78444;BME280;67739;52.986;8.894;2023-04-03T03:28:41;103425.56;;;-1.48;83.05
78444;BME280;67739;52.986;8.894;2023-04-03T03:31:08;103428.94;;;-1.50;83.06
78444;BME280;67739;52.986;8.894;2023-04-03T03:33:33;103433.25;;;-1.52;83.41
78444;BME280;67739;52.986;8.894;2023-04-03T03:35:59;103425.28;;;-1.54;83.55
78444;BME280;67739;52.986;8.894;2023-04-03T03:38:25;103434.06;;;-1.53;83.88
78444;BME280;67739;52.986;8.894;2023-04-03T03:40:51;103431.50;;;-1.52;83.65
78444;BME280;67739;52.986;8.894;2023-04-03T03:43:17;103425.41;;;-1.51;83.89
78444;BME280;67739;52.986;8.894;2023-04-03T03:45:42;103417.50;;;-1.51;83.70
78444;BME280;67739;52.986;8.894;2023-04-03T03:48:08;103434.13;;;-1.52;83.77
78444;BME280;67739;52.986;8.894;2023-04-03T03:50:33;103433.25;;;-1.52;83.66
78444;BME280;67739;52.986;8.894;2023-04-03T03:52:59;103431.50;;;-1.52;84.12
78444;BME280;67739;52.986;8.894;2023-04-03T03:55:25;103433.25;;;-1.52;84.03
78444;BME280;67739;52.986;8.894;2023-04-03T03:57:51;103429.78;;;-1.51;84.28
78444;BME280;67739;52.986;8.894;2023-04-03T04:00:17;103432.41;;;-1.51;84.04
78444;BME280;67739;52.986;8.894;2023-04-03T04:02:42;103434.97;;;-1.53;84.15
78444;BME280;67739;52.986;8.894;2023-04-03T04:05:08;103427.00;;;-1.54;83.81
78444;BME280;67739;52.986;8.894;2023-04-03T04:07:33;103432.19;;;-1.56;83.62
78444;BME280;67739;52.986;8.894;2023-04-03T04:09:59;103427.75;;;-1.57;84.08
78444;BME280;67739;52.986;8.894;2023-04-03T04:12:24;103432.13;;;-1.57;83.78
78444;BME280;67739;52.986;8.894;2023-04-03T04:14:49;103445.25;;;-1.59;84.21
78444;BME280;67739;52.986;8.894;2023-04-03T04:17:15;103438.19;;;-1.60;84.05
78444;BME280;67739;52.986;8.894;2023-04-03T04:19:40;103438.13;;;-1.61;83.96
78444;BME280;67739;52.986;8.894;2023-04-03T04:22:06;103442.47;;;-1.62;83.83
78444;BME280;67739;52.986;8.894;2023-04-03T04:24:31;103446.84;;;-1.62;83.89
78444;BME280;67739;52.986;8.894;2023-04-03T04:26:56;103449.41;;;-1.64;84.06
78444;BME280;67739;52.986;8.894;2023-04-03T04:29:22;103457.22;;;-1.65;84.12
78444;BME280;67739;52.986;8.894;2023-04-03T04:31:47;103459.84;;;-1.65;83.99
78444;BME280;67739;52.986;8.894;2023-04-03T04:34:12;103454.66;;;-1.64;84.70
78444;BME280;67739;52.986;8.894;2023-04-03T04:36:38;103456.41;;;-1.64;84.66
78444;BME280;67739;52.986;8.894;2023-04-03T04:39:04;103454.66;;;-1.64;84.41
78444;BME280;67739;52.986;8.894;2023-04-03T04:41:30;103458.97;;;-1.66;83.99
78444;BME280;67739;52.986;8.894;2023-04-03T04:43:55;103459.72;;;-1.68;84.25
78444;BME280;67739;52.986;8.894;2023-04-03T04:46:21;103467.47;;;-1.71;84.37
78444;BME280;67739;52.986;8.894;2023-04-03T04:48:47;103463.00;;;-1.74;83.88
78444;BME280;67739;52.986;8.894;2023-04-03T04:51:13;103470.81;;;-1.75;84.05
78444;BME280;67739;52.986;8.894;2023-04-03T04:53:39;103475.94;;;-1.79;83.94
78444;BME280;67739;52.986;8.894;2023-04-03T04:56:05;103470.59;;;-1.80;83.99
78444;BME280;67739;52.986;8.894;2023-04-03T04:58:30;103475.78;;;-1.82;84.14
78444;BME280;67739;52.986;8.894;2023-04-03T05:01:07;103482.78;;;-1.82;84.32
78444;BME280;67739;52.986;8.894;2023-04-03T05:03:33;103484.50;;;-1.83;84.48
78444;BME280;67739;52.986;8.894;2023-04-03T05:05:59;103479.31;;;-1.81;84.10
78444;BME280;67739;52.986;8.894;2023-04-03T05:08:25;103479.41;;;-1.80;84.76
78444;BME280;67739;52.986;8.894;2023-04-03T05:10:51;103484.66;;;-1.80;84.87
78444;BME280;67739;52.986;8.894;2023-04-03T05:13:17;103483.00;;;-1.77;85.03
78444;BME280;67739;52.986;8.894;2023-04-03T05:15:42;103490.97;;;-1.76;84.90
78444;BME280;67739;52.986;8.894;2023-04-03T05:18:08;103487.50;;;-1.75;85.20
78444;BME280;67739;52.986;8.894;2023-04-03T05:20:33;103491.94;;;-1.74;84.95
78444;BME280;67739;52.986;8.894;2023-04-03T05:23:00;103493.78;;;-1.71;85.09
78444;BME280;67739;52.986;8.894;2023-04-03T05:25:25;103494.69;;;-1.71;84.75
78444;BME280;67739;52.986;8.894;2023-04-03T05:27:51;103496.47;;;-1.70;84.67
78444;BME280;67739;52.986;8.894;2023-04-03T05:30:16;103503.63;;;-1.67;85.19
78444;BME280;67739;52.986;8.894;2023-04-03T05:32:42;103498.50;;;-1.64;85.02
78444;BME280;67739;52.986;8.894;2023-04-03T05:35:07;103498.66;;;-1.61;85.31
78444;BME280;67739;52.986;8.894;2023-04-03T05:37:33;103491.00;;;-1.55;85.79
78444;BME280;67739;52.986;8.894;2023-04-03T05:39:59;103494.97;;;-1.46;86.54
78444;BME280;67739;52.986;8.894;2023-04-03T05:42:24;103490.09;;;-1.36;87.09
78444;BME280;67739;52.986;8.894;2023-04-03T05:44:50;103499.34;;;-1.25;87.62
78444;BME280;67739;52.986;8.894;2023-04-03T05:47:16;103504.25;;;-1.14;87.81
78444;BME280;67739;52.986;8.894;2023-04-03T05:49:41;103503.91;;;-1.02;88.32
78444;BME280;67739;52.986;8.894;2023-04-03T05:52:30;103505.31;;;-0.89;87.45
78444;BME280;67739;52.986;8.894;2023-04-03T05:54:58;103502.28;;;-0.78;87.31
78444;BME280;67739;52.986;8.894;2023-04-03T05:57:23;103507.09;;;-0.67;86.57
78444;BME280;67739;52.986;8.894;2023-04-03T05:59:49;103515.41;;;-0.58;85.93
78444;BME280;67739;52.986;8.894;2023-04-03T06:02:17;103511.38;;;-0.49;86.05
78444;BME280;67739;52.986;8.894;2023-04-03T06:04:43;103507.25;;;-0.42;84.35
78444;BME280;67739;52.986;8.894;2023-04-03T06:07:14;103510.19;;;-0.34;84.39
78444;BME280;67739;52.986;8.894;2023-04-03T06:09:40;103519.31;;;-0.26;84.75
78444;BME280;67739;52.986;8.894;2023-04-03T06:12:06;103524.97;;;-0.17;84.76
78444;BME280;67739;52.986;8.894;2023-04-03T06:14:31;103524.34;;;-0.10;83.80
78444;BME280;67739;52.986;8.894;2023-04-03T06:16:57;103529.75;;;-0.07;82.56
78444;BME280;67739;52.986;8.894;2023-04-03T06:19:23;103528.97;;;-0.05;82.12
78444;BME280;67739;52.986;8.894;2023-04-03T06:21:48;103537.81;;;-0.04;81.57
78444;BME280;67739;52.986;8.894;2023-04-03T06:24:15;103528.16;;;-0.04;81.66
78444;BME280;67739;52.986;8.894;2023-04-03T06:26:41;103533.47;;;-0.02;81.74
78444;BME280;67739;52.986;8.894;2023-04-03T06:29:07;103522.13;;;0.00;81.52
78444;BME280;67739;52.986;8.894;2023-04-03T06:31:32;103537.31;;;0.06;81.68
78444;BME280;67739;52.986;8.894;2023-04-03T06:33:58;103533.94;;;0.10;81.45
78444;BME280;67739;52.986;8.894;2023-04-03T06:36:23;103534.09;;;0.15;81.44
78444;BME280;67739;52.986;8.894;2023-04-03T06:38:49;103538.72;;;0.20;81.59
78444;BME280;67739;52.986;8.894;2023-04-03T06:41:15;103535.44;;;0.26;81.50
78444;BME280;67739;52.986;8.894;2023-04-03T06:43:41;103536.56;;;0.32;81.28
78444;BME280;67739;52.986;8.894;2023-04-03T06:46:09;103542.03;;;0.37;80.61
78444;BME280;67739;52.986;8.894;2023-04-03T06:48:36;103540.47;;;0.42;80.71
78444;BME280;67739;52.986;8.894;2023-04-03T06:51:01;103551.28;;;0.50;80.90
78444;BME280;67739;52.986;8.894;2023-04-03T06:53:26;103556.81;;;0.56;80.76
78444;BME280;67739;52.986;8.894;2023-04-03T06:55:52;103550.97;;;0.64;80.71
78444;BME280;67739;52.986;8.894;2023-04-03T06:58:17;103557.47;;;0.74;80.88
78444;BME280;67739;52.986;8.894;2023-04-03T07:00:43;103563.09;;;0.83;80.33
78444;BME280;67739;52.986;8.894;2023-04-03T07:03:08;103562.69;;;0.96;80.21
78444;BME280;67739;52.986;8.894;2023-04-03T07:05:33;103569.38;;;1.11;79.53
78444;BME280;67739;52.986;8.894;2023-04-03T07:07:59;103562.88;;;1.26;79.56
78444;BME280;67739;52.986;8.894;2023-04-03T07:10:24;103564.34;;;1.44;79.44
78444;BME280;67739;52.986;8.894;2023-04-03T07:12:49;103569.31;;;1.61;78.23
78444;BME280;67739;52.986;8.894;2023-04-03T07:15:15;103579.72;;;1.82;78.91
78444;BME280;67739;52.986;8.894;2023-04-03T07:17:40;103568.84;;;2.00;76.16
78444;BME280;67739;52.986;8.894;2023-04-03T07:20:06;103567.56;;;2.17;75.93
78444;BME280;67739;52.986;8.894;2023-04-03T07:22:32;103566.28;;;2.33;74.71
78444;BME280;67739;52.986;8.894;2023-04-03T07:24:58;103573.09;;;2.53;74.49
78444;BME280;67739;52.986;8.894;2023-04-03T07:27:24;103572.53;;;2.65;71.52
78444;BME280;67739;52.986;8.894;2023-04-03T07:29:50;103565.63;;;2.70;69.50
78444;BME280;67739;52.986;8.894;2023-04-03T07:32:15;103564.88;;;2.75;69.85
78444;BME280;67739;52.986;8.894;2023-04-03T07:34:41;103565.94;;;2.80;69.93
78444;BME280;67739;52.986;8.894;2023-04-03T07:37:07;103574.03;;;2.85;68.44
78444;BME280;67739;52.986;8.894;2023-04-03T07:39:34;103582.06;;;2.88;68.33
78444;BME280;67739;52.986;8.894;2023-04-03T07:41:59;103578.66;;;2.94;68.27
78444;BME280;67739;52.986;8.894;2023-04-03T07:44:25;103579.72;;;2.99;68.42
78444;BME280;67739;52.986;8.894;2023-04-03T07:46:51;103580.69;;;3.02;67.75
78444;BME280;67739;52.986;8.894;2023-04-03T07:49:17;103574.69;;;3.09;67.27
78444;BME280;67739;52.986;8.894;2023-04-03T07:51:48;103572.22;;;3.15;67.55
78444;BME280;67739;52.986;8.894;2023-04-03T07:54:13;103573.22;;;3.20;66.23
78444;BME280;67739;52.986;8.894;2023-04-03T07:56:39;103579.53;;;3.26;66.63
78444;BME280;67739;52.986;8.894;2023-04-03T07:59:04;103575.22;;;3.29;65.00
78444;BME280;67739;52.986;8.894;2023-04-03T08:01:30;103586.75;;;3.30;62.89
78444;BME280;67739;52.986;8.894;2023-04-03T08:03:57;103575.28;;;3.31;62.18
78444;BME280;67739;52.986;8.894;2023-04-03T08:06:23;103588.59;;;3.34;62.25
78444;BME280;67739;52.986;8.894;2023-04-03T08:08:48;103583.47;;;3.40;61.44
78444;BME280;67739;52.986;8.894;2023-04-03T08:11:13;103586.34;;;3.49;62.03
78444;BME280;67739;52.986;8.894;2023-04-03T08:13:39;103585.78;;;3.61;61.46
78444;BME280;67739;52.986;8.894;2023-04-03T08:16:08;103581.53;;;3.69;60.83
78444;BME280;67739;52.986;8.894;2023-04-03T08:18:34;103586.25;;;3.80;60.32
78444;BME280;67739;52.986;8.894;2023-04-03T08:20:59;103582.03;;;3.90;60.64
78444;BME280;67739;52.986;8.894;2023-04-03T08:23:25;103587.69;;;4.02;57.63
78444;BME280;67739;52.986;8.894;2023-04-03T08:25:51;103586.94;;;4.09;59.15
78444;BME280;67739;52.986;8.894;2023-04-03T08:28:16;103572.25;;;4.25;58.72
78444;BME280;67739;52.986;8.894;2023-04-03T08:30:42;103577.94;;;4.42;57.66
78444;BME280;67739;52.986;8.894;2023-04-03T08:33:09;103577.47;;;4.62;56.26
78444;BME280;67739;52.986;8.894;2023-04-03T08:35:41;103576.00;;;4.77;55.75
78444;BME280;67739;52.986;8.894;2023-04-03T08:38:07;103571.72;;;4.83;53.32
78444;BME280;67739;52.986;8.894;2023-04-03T08:40:33;103572.75;;;4.90;55.65
78444;BME280;67739;52.986;8.894;2023-04-03T08:43:28;103571.19;;;5.01;54.99
78444;BME280;67739;52.986;8.894;2023-04-03T08:46:01;103580.38;;;5.18;54.90
78444;BME280;67739;52.986;8.894;2023-04-03T08:48:34;103562.94;;;5.36;51.79
78444;BME280;67739;52.986;8.894;2023-04-03T08:51:04;103557.81;;;5.46;52.83
78444;BME280;67739;52.986;8.894;2023-04-03T08:53:40;103563.06;;;5.42;50.01
78444;BME280;67739;52.986;8.894;2023-04-03T08:56:11;103559.59;;;5.49;54.35
78444;BME280;67739;52.986;8.894;2023-04-03T08:58:56;103564.50;;;5.74;53.63
78444;BME280;67739;52.986;8.894;2023-04-03T09:01:39;103553.34;;;5.98;52.41
78444;BME280;67739;52.986;8.894;2023-04-03T09:04:13;103560.66;;;6.13;50.39
78444;BME280;67739;52.986;8.894;2023-04-03T09:06:43;103554.38;;;6.09;50.68
78444;BME280;67739;52.986;8.894;2023-04-03T09:12:06;103549.94;;;6.10;49.46
78444;BME280;67739;52.986;8.894;2023-04-03T09:15:25;103550.09;;;6.19;49.36
78444;BME280;67739;52.986;8.894;2023-04-03T09:20:03;103547.63;;;6.35;49.62
78444;BME280;67739;52.986;8.894;2023-04-03T09:22:37;103540.59;;;6.41;46.57
78444;BME280;67739;52.986;8.894;2023-04-03T09:25:17;103538.91;;;6.46;49.33
78444;BME280;67739;52.986;8.894;2023-04-03T09:27:44;103541.69;;;6.56;48.29
78444;BME280;67739;52.986;8.894;2023-04-03T09:30:14;103547.25;;;6.73;47.07
78444;BME280;67739;52.986;8.894;2023-04-03T09:32:41;103545.53;;;6.80;46.91
78444;BME280;67739;52.986;8.894;2023-04-03T09:37:41;103535.69;;;6.74;47.04
78444;BME280;67739;52.986;8.894;2023-04-03T09:40:31;103536.63;;;6.76;47.41
78444;BME280;67739;52.986;8.894;2023-04-03T09:43:02;103532.88;;;6.62;44.67
78444;BME280;67739;52.986;8.894;2023-04-03T09:45:44;103540.91;;;6.65;47.01
78444;BME280;67739;52.986;8.894;2023-04-03T09:51:01;103525.88;;;6.71;44.37
78444;BME280;67739;52.986;8.894;2023-04-03T09:53:39;103523.94;;;6.58;44.60
78444;BME280;67739;52.986;8.894;2023-04-03T09:58:40;103525.66;;;6.53;44.24
78444;BME280;67739;52.986;8.894;2023-04-03T10:04:03;103516.75;;;6.53;45.05
78444;BME280;67739;52.986;8.894;2023-04-03T10:06:31;103516.84;;;6.59;45.58
78444;BME280;67739;52.986;8.894;2023-04-03T10:09:05;103515.19;;;6.70;43.55
78444;BME280;67739;52.986;8.894;2023-04-03T10:11:32;103522.47;;;6.85;44.17
78444;BME280;67739;52.986;8.894;2023-04-03T10:14:02;103523.50;;;6.97;44.51
78444;BME280;67739;52.986;8.894;2023-04-03T10:16:35;103508.47;;;7.08;43.34
78444;BME280;67739;52.986;8.894;2023-04-03T10:21:42;103507.84;;;7.37;43.38
78444;BME280;67739;52.986;8.894;2023-04-03T10:24:23;103506.13;;;7.45;41.13
78444;BME280;67739;52.986;8.894;2023-04-03T10:26:58;103506.13;;;7.45;40.90
78444;BME280;67739;52.986;8.894;2023-04-03T10:32:02;103493.66;;;7.44;41.01
78444;BME280;67739;52.986;8.894;2023-04-03T10:34:32;103498.13;;;7.45;41.27
78444;BME280;67739;52.986;8.894;2023-04-03T10:37:19;103496.38;;;7.49;39.78
78444;BME280;67739;52.986;8.894;2023-04-03T10:39:54;103498.22;;;7.59;40.63
78444;BME280;67739;52.986;8.894;2023-04-03T10:45:24;103485.88;;;7.76;38.46
78444;BME280;67739;52.986;8.894;2023-04-03T10:48:08;103491.31;;;7.88;40.47
78444;BME280;67739;52.986;8.894;2023-04-03T10:50:47;103479.69;;;7.85;41.55
78444;BME280;67739;52.986;8.894;2023-04-03T11:01:55;103476.41;;;8.33;38.63
78444;BME280;67739;52.986;8.894;2023-04-03T11:04:23;103462.19;;;8.46;39.52
78444;BME280;67739;52.986;8.894;2023-04-03T11:06:58;103468.41;;;8.42;39.25
78444;BME280;67739;52.986;8.894;2023-04-03T11:09:32;103459.53;;;8.55;39.76
78444;BME280;67739;52.986;8.894;2023-04-03T11:12:04;103458.69;;;8.80;43.27
78444;BME280;67739;52.986;8.894;2023-04-03T11:14:37;103451.59;;;9.02;39.66
78444;BME280;67739;52.986;8.894;2023-04-03T11:20:08;103445.34;;;9.35;39.02
78444;BME280;67739;52.986;8.894;2023-04-03T11:22:41;103448.91;;;9.45;38.91
78444;BME280;67739;52.986;8.894;2023-04-03T11:27:48;103444.41;;;8.81;40.64
78444;BME280;67739;52.986;8.894;2023-04-03T11:30:20;103441.69;;;8.45;40.46
78444;BME280;67739;52.986;8.894;2023-04-03T11:32:59;103440.66;;;8.15;41.85
78444;BME280;67739;52.986;8.894;2023-04-03T11:35:27;103440.53;;;7.94;42.34
78444;BME280;67739;52.986;8.894;2023-04-03T11:37:53;103435.13;;;7.80;43.14
78444;BME280;67739;52.986;8.894;2023-04-03T11:40:24;103446.66;;;7.72;41.46
78444;BME280;67739;52.986;8.894;2023-04-03T11:46:04;103428.28;;;8.33;40.61
78444;BME280;67739;52.986;8.894;2023-04-03T11:51:01;103423.03;;;9.00;38.89
78444;BME280;67739;52.986;8.894;2023-04-03T11:53:39;103410.53;;;9.12;39.81
78444;BME280;67739;52.986;8.894;2023-04-03T11:58:34;103408.75;;;9.19;37.06
78444;BME280;67739;52.986;8.894;2023-04-03T12:03:56;103409.59;;;9.45;39.83
78444;BME280;67739;52.986;8.894;2023-04-03T12:08:46;103395.28;;;9.54;39.61
78444;BME280;67739;52.986;8.894;2023-04-03T12:16:19;103399.75;;;9.61;39.69
78444;BME280;67739;52.986;8.894;2023-04-03T12:21:15;103398.75;;;9.82;38.53
78444;BME280;67739;52.986;8.894;2023-04-03T12:32:25;103386.34;;;9.58;39.08
78444;BME280;67739;52.986;8.894;2023-04-03T12:35:24;103386.28;;;9.78;37.03
78444;BME280;67739;52.986;8.894;2023-04-03T12:38:20;103377.31;;;9.94;39.33
78444;BME280;67739;52.986;8.894;2023-04-03T12:41:11;103363.91;;;9.92;35.66
78444;BME280;67739;52.986;8.894;2023-04-03T12:46:17;103371.88;;;10.00;40.29
78444;BME280;67739;52.986;8.894;2023-04-03T12:48:47;103370.09;;;9.99;40.20
78444;BME280;67739;52.986;8.894;2023-04-03T12:51:15;103363.78;;;10.20;40.15
78444;BME280;67739;52.986;8.894;2023-04-03T12:53:43;103358.25;;;10.46;39.23
78444;BME280;67739;52.986;8.894;2023-04-03T12:56:29;103355.44;;;10.67;39.34
78444;BME280;67739;52.986;8.894;2023-04-03T12:59:13;103350.88;;;10.74;37.69
78444;BME280;67739;52.986;8.894;2023-04-03T13:01:39;103350.13;;;10.55;37.02
78444;BME280;67739;52.986;8.894;2023-04-03T13:04:05;103360.13;;;10.30;38.79
78444;BME280;67739;52.986;8.894;2023-04-03T13:06:36;103353.94;;;10.19;38.66
78444;BME280;67739;52.986;8.894;2023-04-03T13:09:03;103353.09;;;10.06;37.33
78444;BME280;67739;52.986;8.894;2023-04-03T13:11:39;103346.06;;;9.81;38.49
78444;BME280;67739;52.986;8.894;2023-04-03T13:14:21;103346.16;;;9.55;40.40
78444;BME280;67739;52.986;8.894;2023-04-03T13:16:59;103337.28;;;9.36;41.16
78444;BME280;67739;52.986;8.894;2023-04-03T13:19:28;103336.41;;;9.33;41.09
78444;BME280;67739;52.986;8.894;2023-04-03T13:22:10;103333.69;;;9.49;41.08
78444;BME280;67739;52.986;8.894;2023-04-03T13:24:49;103331.78;;;9.73;38.22
78444;BME280;67739;52.986;8.894;2023-04-03T13:27:16;103335.31;;;9.90;37.82
78444;BME280;67739;52.986;8.894;2023-04-03T13:29:42;103328.06;;;10.03;39.18
78444;BME280;67739;52.986;8.894;2023-04-03T13:32:18;103334.34;;;10.05;36.44
78444;BME280;67739;52.986;8.894;2023-04-03T13:34:44;103322.69;;;10.09;35.88
78444;BME280;67739;52.986;8.894;2023-04-03T13:37:27;103325.28;;;10.25;36.28
78444;BME280;67739;52.986;8.894;2023-04-03T13:42:31;103309.91;;;10.52;36.82
78444;BME280;67739;52.986;8.894;2023-04-03T13:45:19;103322.34;;;10.60;37.95
78444;BME280;67739;52.986;8.894;2023-04-03T13:47:47;103318.78;;;10.57;37.50
78444;BME280;67739;52.986;8.894;2023-04-03T13:50:15;103318.09;;;10.31;36.78
78444;BME280;67739;52.986;8.894;2023-04-03T13:53:00;103309.38;;;9.93;37.34
78444;BME280;67739;52.986;8.894;2023-04-03T13:55:32;103303.25;;;9.61;38.70
78444;BME280;67739;52.986;8.894;2023-04-03T13:57:59;103304.22;;;9.46;38.61
78444;BME280;67739;52.986;8.894;2023-04-03T14:00:47;103299.75;;;9.47;38.97
78444;BME280;67739;52.986;8.894;2023-04-03T14:06:10;103296.13;;;9.57;36.11
78444;BME280;67739;52.986;8.894;2023-04-03T14:08:36;103297.88;;;9.66;38.11
78444;BME280;67739;52.986;8.894;2023-04-03T14:11:02;103294.22;;;9.83;38.17
78444;BME280;67739;52.986;8.894;2023-04-03T14:13:30;103288.75;;;9.97;36.15
78444;BME280;67739;52.986;8.894;2023-04-03T14:15:56;103294.03;;;10.17;38.20
78444;BME280;67739;52.986;8.894;2023-04-03T14:18:22;103290.38;;;10.33;37.92
78444;BME280;67739;52.986;8.894;2023-04-03T14:20:49;103282.41;;;10.19;35.97
78444;BME280;67739;52.986;8.894;2023-04-03T14:23:15;103287.94;;;9.89;36.70